createdAt,value
2023-09-14T00:01:17.959Z,1.30
2023-09-14T00:03:45.056Z,1.30
2023-09-14T00:06:12.061Z,1.17
2023-09-14T00:08:38.905Z,1.02
2023-09-14T00:11:06.294Z,1.98
2023-09-14T00:13:33.279Z,0.88
2023-09-14T00:16:01.013Z,1.00
2023-09-14T00:18:28.567Z,1.48
2023-09-14T00:21:03.020Z,1.00
2023-09-14T00:23:29.880Z,1.27
2023-09-14T00:25:56.721Z,0.88
2023-09-14T00:28:23.643Z,1.00
2023-09-14T00:30:54.185Z,1.67
2023-09-14T00:33:23.205Z,1.55
2023-09-14T00:35:50.223Z,1.23
2023-09-14T00:38:17.149Z,0.98
2023-09-14T00:40:44.146Z,0.90
2023-09-14T00:43:11.198Z,1.00
2023-09-14T00:45:38.464Z,1.08
2023-09-14T00:48:05.686Z,1.10
2023-09-14T00:50:34.543Z,1.25
2023-09-14T00:53:07.581Z,1.15
2023-09-14T00:55:35.111Z,1.30
2023-09-14T00:58:02.407Z,1.10
2023-09-14T01:00:30.328Z,1.13
2023-09-14T01:02:59.773Z,1.20
2023-09-14T01:05:32.586Z,1.35
2023-09-14T01:08:00.453Z,1.20
2023-09-14T01:10:27.618Z,1.10
2023-09-14T01:12:54.634Z,1.10
2023-09-14T01:15:32.932Z,1.40
2023-09-14T01:18:32.117Z,1.15
2023-09-14T01:21:48.978Z,1.30
2023-09-14T01:24:34.726Z,0.93
2023-09-14T01:27:02.343Z,1.05
2023-09-14T01:29:30.514Z,1.65
2023-09-14T01:31:57.268Z,1.00
2023-09-14T01:34:24.367Z,1.30
2023-09-14T01:37:00.900Z,1.33
2023-09-14T01:39:30.016Z,1.42
2023-09-14T01:41:58.196Z,1.20
2023-09-14T01:44:28.185Z,1.30
2023-09-14T01:46:57.544Z,1.10
2023-09-14T01:49:24.456Z,1.00
2023-09-14T01:51:52.624Z,1.33
2023-09-14T01:54:19.475Z,1.10
2023-09-14T01:56:46.437Z,0.98
2023-09-14T01:59:13.292Z,1.23
2023-09-14T02:01:40.207Z,0.90
2023-09-14T02:04:07.167Z,1.20
2023-09-14T02:06:34.128Z,0.90
2023-09-14T02:09:01.034Z,1.40
2023-09-14T02:11:27.838Z,1.52
2023-09-14T02:13:54.920Z,1.17
2023-09-14T02:16:21.758Z,1.10
2023-09-14T02:18:49.193Z,1.50
2023-09-14T02:21:18.319Z,1.20
2023-09-14T02:23:45.178Z,1.10
2023-09-14T02:26:12.039Z,1.02
2023-09-14T02:28:38.832Z,1.08
2023-09-14T02:31:09.498Z,1.30
2023-09-14T02:33:38.175Z,1.27
2023-09-14T02:36:05.561Z,1.23
2023-09-14T02:38:32.407Z,1.05
2023-09-14T02:40:59.272Z,1.25
2023-09-14T02:43:26.107Z,1.33
2023-09-14T02:45:53.039Z,1.10
2023-09-14T02:48:19.891Z,1.20
2023-09-14T02:50:50.146Z,1.35
2023-09-14T02:53:16.997Z,1.20
2023-09-14T02:55:43.821Z,1.20
2023-09-14T02:58:10.866Z,1.00
2023-09-14T03:00:41.158Z,1.25
2023-09-14T03:03:13.461Z,1.13
2023-09-14T03:05:40.473Z,1.42
2023-09-14T03:08:07.363Z,1.30
2023-09-14T03:10:34.272Z,1.23
2023-09-14T03:13:01.274Z,1.80
2023-09-14T03:15:28.180Z,1.25
2023-09-14T03:17:55.146Z,1.30
2023-09-14T03:20:22.123Z,1.20
2023-09-14T03:22:48.953Z,1.80
2023-09-14T03:25:15.907Z,1.30
2023-09-14T03:27:45.453Z,1.42
2023-09-14T03:30:12.730Z,1.38
2023-09-14T03:32:39.877Z,1.58
2023-09-14T03:35:09.357Z,1.20
2023-09-14T03:37:37.093Z,1.13
2023-09-14T03:40:11.137Z,1.30
2023-09-14T03:42:38.022Z,1.17
2023-09-14T03:45:06.244Z,1.33
2023-09-14T03:47:33.341Z,1.35
2023-09-14T03:50:00.315Z,1.58
2023-09-14T03:52:27.145Z,1.35
2023-09-14T03:54:55.250Z,1.33
2023-09-14T04:00:34.340Z,1.30
2023-09-14T04:03:01.611Z,1.15
2023-09-14T04:05:31.536Z,1.15
2023-09-14T04:07:58.335Z,2.53
2023-09-14T04:10:27.084Z,1.10
2023-09-14T04:13:35.253Z,1.40
2023-09-14T04:16:08.669Z,2.15
2023-09-14T04:18:38.152Z,1.50
2023-09-14T04:21:06.944Z,1.20
2023-09-14T04:23:33.887Z,1.90
2023-09-14T04:26:02.070Z,1.33
2023-09-14T04:28:28.955Z,1.38
2023-09-14T04:31:03.219Z,1.10
2023-09-14T04:33:31.262Z,1.33
2023-09-14T04:36:01.958Z,1.20
2023-09-14T04:38:28.880Z,1.10
2023-09-14T04:40:55.804Z,1.30
2023-09-14T04:43:25.704Z,1.35
2023-09-14T04:45:52.840Z,1.30
2023-09-14T04:48:19.753Z,1.30
2023-09-14T04:50:46.623Z,1.17
2023-09-14T04:53:13.454Z,1.15
2023-09-14T04:55:40.268Z,1.02
2023-09-14T04:58:08.006Z,1.25
2023-09-14T05:00:35.669Z,1.40
2023-09-14T05:03:06.106Z,1.35
2023-09-14T05:05:34.944Z,1.60
2023-09-14T05:08:01.803Z,1.65
2023-09-14T05:10:29.122Z,1.40
2023-09-14T05:12:56.017Z,1.42
2023-09-14T05:15:22.897Z,1.20
2023-09-14T05:17:50.899Z,1.50
2023-09-14T05:20:18.740Z,1.20
2023-09-14T05:22:45.685Z,2.65
2023-09-14T05:25:12.636Z,1.63
2023-09-14T05:27:41.703Z,1.40
2023-09-14T05:30:11.616Z,1.50
2023-09-14T05:32:40.832Z,1.20
2023-09-14T05:35:08.407Z,1.40
2023-09-14T05:37:39.464Z,1.50
2023-09-14T05:40:11.349Z,1.70
2023-09-14T05:42:38.721Z,1.48
2023-09-14T05:45:12.910Z,2.38
2023-09-14T05:47:40.114Z,1.30
2023-09-14T05:50:11.874Z,1.40
2023-09-14T05:52:39.738Z,1.40
2023-09-14T05:55:07.368Z,1.50
2023-09-14T05:57:34.423Z,1.60
2023-09-14T06:00:01.477Z,1.70
2023-09-14T06:02:28.427Z,1.40
2023-09-14T06:05:05.341Z,1.40
2023-09-14T06:07:40.740Z,1.13
2023-09-14T06:10:09.681Z,1.80
2023-09-14T06:12:36.576Z,1.50
2023-09-14T06:15:04.365Z,1.42
2023-09-14T06:17:31.203Z,1.33
2023-09-14T06:19:58.197Z,1.30
2023-09-14T06:22:25.057Z,1.23
2023-09-14T06:24:53.296Z,1.20
2023-09-14T06:27:20.145Z,1.50
2023-09-14T06:29:47.621Z,1.30
2023-09-14T06:32:14.573Z,1.25
2023-09-14T06:34:41.460Z,1.55
2023-09-14T06:37:08.410Z,2.00
2023-09-14T06:39:35.256Z,2.30
2023-09-14T06:42:02.176Z,2.50
2023-09-14T06:44:29.172Z,2.35
2023-09-14T06:46:56.038Z,2.20
2023-09-14T06:49:22.931Z,2.25
2023-09-14T06:51:49.822Z,2.00
2023-09-14T06:54:16.798Z,2.08
2023-09-14T06:56:43.687Z,2.10
2023-09-14T06:59:10.899Z,1.90
2023-09-14T07:01:37.858Z,2.20
2023-09-14T07:04:05.296Z,2.60
2023-09-14T07:06:32.241Z,2.13
2023-09-14T07:08:59.060Z,2.20
2023-09-14T07:11:26.468Z,2.40
2023-09-14T07:13:53.425Z,1.83
2023-09-14T07:16:20.390Z,2.42
2023-09-14T07:18:47.460Z,2.35
2023-09-14T07:21:14.864Z,1.70
2023-09-14T07:23:43.156Z,2.10
2023-09-14T07:26:10.124Z,2.15
2023-09-14T07:28:38.946Z,2.13
2023-09-14T07:31:07.626Z,2.33
2023-09-14T07:33:34.992Z,1.77
2023-09-14T07:36:01.920Z,2.70
2023-09-14T07:38:28.861Z,2.45
2023-09-14T07:40:55.746Z,1.95
2023-09-14T07:43:22.669Z,2.05
2023-09-14T07:45:49.733Z,2.25
2023-09-14T07:48:17.257Z,2.30
2023-09-14T07:50:44.117Z,1.83
2023-09-14T07:53:11.398Z,2.17
2023-09-14T07:55:38.719Z,2.60
2023-09-14T07:58:09.725Z,2.30
2023-09-14T08:00:37.163Z,2.03
2023-09-14T08:03:04.516Z,2.35
2023-09-14T08:05:34.484Z,3.17
2023-09-14T08:08:04.474Z,2.70
2023-09-14T08:10:31.327Z,3.05
2023-09-14T08:12:59.792Z,3.35
2023-09-14T08:15:26.698Z,2.67
2023-09-14T08:17:53.658Z,2.72
2023-09-14T08:20:20.989Z,3.13
2023-09-14T08:22:49.292Z,2.28
2023-09-14T08:25:17.633Z,2.58
2023-09-14T08:27:44.837Z,3.25
2023-09-14T08:30:13.472Z,2.40
2023-09-14T08:32:40.445Z,2.50
2023-09-14T08:35:27.198Z,2.53
2023-09-14T08:37:55.230Z,2.72
2023-09-14T08:40:23.661Z,2.42
2023-09-14T08:42:55.828Z,3.00
2023-09-14T08:45:34.928Z,2.55
2023-09-14T08:48:06.097Z,2.58
2023-09-14T08:50:35.336Z,2.33
2023-09-14T08:53:03.239Z,2.85
2023-09-14T08:55:36.786Z,2.45
2023-09-14T08:58:07.681Z,2.30
2023-09-14T09:00:36.284Z,1.85
2023-09-14T09:03:03.612Z,2.35
2023-09-14T09:05:30.950Z,2.60
2023-09-14T09:08:00.020Z,2.30
2023-09-14T09:10:32.794Z,2.30
2023-09-14T09:13:05.335Z,2.53
2023-09-14T09:15:38.195Z,2.50
2023-09-14T09:18:07.958Z,2.38
2023-09-14T09:20:37.707Z,2.78
2023-09-14T09:23:05.183Z,2.35
2023-09-14T09:26:03.400Z,2.50
2023-09-14T09:28:31.972Z,3.10
2023-09-14T09:30:59.705Z,3.03
2023-09-14T09:33:42.254Z,2.67
2023-09-14T09:36:19.698Z,2.42
2023-09-14T09:38:49.573Z,3.05
2023-09-14T09:41:17.332Z,2.28
2023-09-14T09:43:45.511Z,2.70
2023-09-14T09:46:19.625Z,2.88
2023-09-14T09:48:47.158Z,2.90
2023-09-14T09:51:14.535Z,2.90
2023-09-14T09:54:08.539Z,3.38
2023-09-14T09:56:38.013Z,2.65
2023-09-14T09:59:10.971Z,2.58
2023-09-14T10:01:39.659Z,2.53
2023-09-14T10:04:16.750Z,2.35
2023-09-14T10:06:55.739Z,2.42
2023-09-14T10:09:26.387Z,2.20
2023-09-14T10:11:59.408Z,2.10
2023-09-14T10:14:28.848Z,1.75
2023-09-14T10:16:58.335Z,2.40
2023-09-14T10:19:28.276Z,2.25
2023-09-14T10:21:58.234Z,1.83
2023-09-14T10:24:27.238Z,2.33
2023-09-14T10:26:56.461Z,1.52
2023-09-14T10:29:27.161Z,2.20
2023-09-14T10:31:58.169Z,2.10
2023-09-14T10:34:28.588Z,2.17
2023-09-14T10:37:00.201Z,2.13
2023-09-14T10:39:28.000Z,2.08
2023-09-14T10:41:55.638Z,2.20
2023-09-14T10:44:23.258Z,2.33
2023-09-14T10:46:56.283Z,2.78
2023-09-14T10:49:33.633Z,2.13
2023-09-14T10:52:01.638Z,2.13
2023-09-14T10:54:33.691Z,1.83
2023-09-14T10:57:11.717Z,2.08
2023-09-14T11:00:22.019Z,2.85
2023-09-14T11:02:52.636Z,1.90
2023-09-14T11:05:40.979Z,2.00
2023-09-14T11:08:09.823Z,1.55
2023-09-14T11:10:40.700Z,2.10
2023-09-14T11:13:20.590Z,1.42
2023-09-14T11:16:19.824Z,1.95
2023-09-14T11:18:48.061Z,1.98
2023-09-14T11:21:38.181Z,1.60
2023-09-14T11:24:09.073Z,1.90
2023-09-14T11:26:49.732Z,1.55
2023-09-14T11:29:23.524Z,1.88
2023-09-14T11:32:07.620Z,1.90
2023-09-14T11:34:39.966Z,1.75
2023-09-14T11:37:19.780Z,1.80
2023-09-14T11:39:58.638Z,2.30
2023-09-14T11:42:29.660Z,1.77
2023-09-14T11:45:07.269Z,2.00
2023-09-14T11:47:58.698Z,1.77
2023-09-14T11:50:35.811Z,1.58
2023-09-14T11:53:02.826Z,1.83
2023-09-14T11:55:32.279Z,1.92
2023-09-14T11:57:59.481Z,2.13
2023-09-14T12:00:27.276Z,3.22
2023-09-14T12:02:54.242Z,1.83
2023-09-14T12:05:25.078Z,2.00
2023-09-14T12:07:51.942Z,2.50
2023-09-14T12:10:24.874Z,1.80
2023-09-14T12:12:51.903Z,2.40
2023-09-14T12:15:23.953Z,2.08
2023-09-14T12:17:53.564Z,1.90
2023-09-14T12:20:21.086Z,1.80
2023-09-14T12:22:48.896Z,1.70
2023-09-14T12:25:19.517Z,2.17
2023-09-14T12:27:47.091Z,2.28
2023-09-14T12:30:14.564Z,1.95
2023-09-14T12:32:42.827Z,2.50
2023-09-14T12:35:13.009Z,2.03
2023-09-14T12:37:42.876Z,1.80
2023-09-14T12:40:14.897Z,1.90
2023-09-14T12:42:44.285Z,1.80
2023-09-14T12:45:34.356Z,2.10
2023-09-14T12:48:09.684Z,1.92
2023-09-14T12:50:37.443Z,1.63
2023-09-14T12:53:10.589Z,1.88
2023-09-14T12:55:45.832Z,2.28
2023-09-14T12:58:22.345Z,1.88
2023-09-14T13:00:54.268Z,2.13
2023-09-14T13:03:21.517Z,1.95
2023-09-14T13:05:54.678Z,1.65
2023-09-14T13:08:24.121Z,2.30
2023-09-14T13:10:50.934Z,1.67
2023-09-14T13:13:20.263Z,1.85
2023-09-14T13:15:47.039Z,1.63
2023-09-14T13:18:18.583Z,1.98
2023-09-14T13:20:52.564Z,2.00
2023-09-14T13:23:22.566Z,1.92
2023-09-14T13:25:49.436Z,2.00
2023-09-14T13:28:16.342Z,1.80
2023-09-14T13:30:43.340Z,1.67
2023-09-14T13:33:10.940Z,1.33
2023-09-14T13:35:37.981Z,1.20
2023-09-14T13:38:05.201Z,1.52
2023-09-14T13:40:32.226Z,1.73
2023-09-14T13:43:01.782Z,1.55
2023-09-14T13:45:31.189Z,1.60
2023-09-14T13:47:58.757Z,2.10
2023-09-14T13:50:26.414Z,2.03
2023-09-14T13:52:53.652Z,2.08
2023-09-14T13:55:23.727Z,2.28
2023-09-14T13:57:50.727Z,1.88
2023-09-14T14:00:23.178Z,1.85
2023-09-14T14:02:56.345Z,1.50
2023-09-14T14:05:23.316Z,2.00
2023-09-14T14:07:50.164Z,1.45
2023-09-14T14:10:17.354Z,1.77
2023-09-14T14:12:44.724Z,2.53
2023-09-14T14:15:13.058Z,1.63
2023-09-14T14:17:40.608Z,1.60
2023-09-14T14:20:10.220Z,1.88
2023-09-14T14:22:37.269Z,2.38
2023-09-14T14:25:06.712Z,1.92
2023-09-14T14:27:36.280Z,1.67
2023-09-14T14:30:03.674Z,1.88
2023-09-14T14:32:32.840Z,1.90
2023-09-14T14:34:59.794Z,1.75
2023-09-14T14:37:26.740Z,1.67
2023-09-14T14:39:53.778Z,1.60
2023-09-14T14:42:20.761Z,2.20
2023-09-14T14:44:48.714Z,1.65
2023-09-14T14:47:19.776Z,1.75
2023-09-14T14:49:46.763Z,1.60
2023-09-14T14:52:13.740Z,2.00
2023-09-14T14:54:40.569Z,1.88
2023-09-14T14:57:07.449Z,1.70
2023-09-14T14:59:36.595Z,1.73
2023-09-14T15:02:10.579Z,1.50
2023-09-14T15:04:43.080Z,1.90
2023-09-14T15:07:14.860Z,1.23
2023-09-14T15:09:41.951Z,1.42
2023-09-14T15:12:09.148Z,1.42
2023-09-14T15:14:38.605Z,1.75
2023-09-14T15:17:05.470Z,1.90
2023-09-14T15:19:34.825Z,1.73
2023-09-14T15:22:02.091Z,1.65
2023-09-14T15:24:30.082Z,1.80
2023-09-14T15:26:59.515Z,1.55
2023-09-14T15:29:29.370Z,1.60
2023-09-14T15:32:03.964Z,1.52
2023-09-14T15:34:34.070Z,1.67
2023-09-14T15:37:05.941Z,1.60
2023-09-14T15:39:32.946Z,2.00
2023-09-14T15:42:02.314Z,1.80
2023-09-14T15:44:29.671Z,1.80
2023-09-14T15:46:56.584Z,1.92
2023-09-14T15:49:32.419Z,1.60
2023-09-14T15:51:59.959Z,1.80
2023-09-14T15:54:36.591Z,1.73
2023-09-14T15:57:06.794Z,1.30
2023-09-14T15:59:34.067Z,1.88
2023-09-14T16:02:13.225Z,1.80
2023-09-14T16:04:43.419Z,1.73
2023-09-14T16:07:12.792Z,2.38
2023-09-14T16:09:39.763Z,1.42
2023-09-14T16:12:09.582Z,1.80
2023-09-14T16:14:36.623Z,1.40
2023-09-14T16:17:03.969Z,1.60
2023-09-14T16:19:31.417Z,1.60
2023-09-14T16:21:58.653Z,2.38
2023-09-14T16:24:27.405Z,1.65
2023-09-14T16:26:55.012Z,1.63
2023-09-14T16:29:22.127Z,1.48
2023-09-14T16:31:48.964Z,1.60
2023-09-14T16:34:15.856Z,1.42
2023-09-14T16:36:43.951Z,1.40
2023-09-14T16:39:10.982Z,1.67
2023-09-14T16:41:40.313Z,1.48
2023-09-14T16:44:08.158Z,1.63
2023-09-14T16:46:35.629Z,1.58
2023-09-14T16:49:25.086Z,1.98
2023-09-14T16:51:56.376Z,2.30
2023-09-14T16:54:26.698Z,1.67
2023-09-14T16:56:58.115Z,1.55
2023-09-14T16:59:27.666Z,1.50
2023-09-14T17:01:55.758Z,1.85
2023-09-14T17:04:26.185Z,2.00
2023-09-14T17:06:54.388Z,1.73
2023-09-14T17:09:22.341Z,1.40
2023-09-14T17:11:49.899Z,1.50
2023-09-14T17:14:17.676Z,1.77
2023-09-14T17:16:44.832Z,1.92
2023-09-14T17:19:13.939Z,1.73
2023-09-14T17:21:40.971Z,2.08
2023-09-14T17:24:08.150Z,1.30
2023-09-14T17:26:35.050Z,1.40
2023-09-14T17:29:05.690Z,1.63
2023-09-14T17:31:33.593Z,1.55
2023-09-14T17:34:00.739Z,1.80
2023-09-14T17:36:27.638Z,1.80
2023-09-14T17:38:54.521Z,1.80
2023-09-14T17:41:21.386Z,2.00
2023-09-14T17:43:48.281Z,2.03
2023-09-14T17:46:16.266Z,1.95
2023-09-14T17:48:43.928Z,2.00
2023-09-14T17:51:12.963Z,2.25
2023-09-14T17:53:40.673Z,1.98
2023-09-14T17:56:07.573Z,2.50
2023-09-14T17:58:34.522Z,2.00
2023-09-14T18:01:01.487Z,2.15
2023-09-14T18:03:29.437Z,2.08
2023-09-14T18:05:56.492Z,2.60
2023-09-14T18:08:26.260Z,2.05
2023-09-14T18:10:56.272Z,2.30
2023-09-14T18:13:23.345Z,2.67
2023-09-14T18:15:55.494Z,2.42
2023-09-14T18:18:22.690Z,2.35
2023-09-14T18:20:53.663Z,1.92
2023-09-14T18:23:23.063Z,1.80
2023-09-14T18:25:57.089Z,2.47
2023-09-14T18:28:30.895Z,2.25
2023-09-14T18:31:01.399Z,1.80
2023-09-14T18:33:28.415Z,2.05
2023-09-14T18:35:57.187Z,1.65
2023-09-14T18:38:25.629Z,1.63
2023-09-14T18:41:04.626Z,1.75
2023-09-14T18:43:33.145Z,1.73
2023-09-14T18:46:00.133Z,1.80
2023-09-14T18:48:29.221Z,2.33
2023-09-14T18:51:03.918Z,1.25
2023-09-14T18:53:32.625Z,1.60
2023-09-14T18:56:00.147Z,1.67
2023-09-14T19:00:57.718Z,1.58
2023-09-14T19:03:25.393Z,1.70
2023-09-14T19:05:55.779Z,1.60
2023-09-14T19:08:25.052Z,1.73
2023-09-14T19:10:54.248Z,2.10
2023-09-14T19:13:22.348Z,2.55
2023-09-14T19:15:52.413Z,1.90
2023-09-14T19:18:22.416Z,1.88
2023-09-14T19:20:49.629Z,2.03
2023-09-14T19:23:20.741Z,2.15
2023-09-14T19:25:51.545Z,2.13
2023-09-14T19:28:18.589Z,2.83
2023-09-14T19:30:46.407Z,1.95
2023-09-14T19:33:14.865Z,2.30
2023-09-14T19:35:43.640Z,2.08
2023-09-14T19:38:10.641Z,1.98
2023-09-14T19:40:38.958Z,2.20
2023-09-14T19:43:05.870Z,2.00
2023-09-14T19:45:36.442Z,1.40
2023-09-14T19:48:05.764Z,1.90
2023-09-14T19:50:37.355Z,1.90
2023-09-14T19:53:04.495Z,1.92
2023-09-14T19:55:31.765Z,2.85
2023-09-14T19:57:58.685Z,2.10
2023-09-14T20:00:25.623Z,2.33
2023-09-14T20:02:52.680Z,2.50
2023-09-14T20:05:20.220Z,2.65
2023-09-14T20:07:48.237Z,2.50
2023-09-14T20:10:15.249Z,2.00
2023-09-14T20:12:42.502Z,1.90
2023-09-14T20:15:13.254Z,2.10
2023-09-14T20:17:41.750Z,2.05
2023-09-14T20:20:09.201Z,2.28
2023-09-14T20:22:36.205Z,3.42
2023-09-14T20:25:03.849Z,2.50
2023-09-14T20:27:31.416Z,2.22
2023-09-14T20:29:58.400Z,2.35
2023-09-14T20:32:27.667Z,2.17
2023-09-14T20:34:54.764Z,2.92
2023-09-14T20:37:21.704Z,2.58
2023-09-14T20:39:50.643Z,2.40
2023-09-14T20:42:18.421Z,2.35
2023-09-14T20:44:47.255Z,2.22
2023-09-14T20:47:15.746Z,1.90
2023-09-14T20:49:42.561Z,2.35
2023-09-14T20:52:10.384Z,2.20
2023-09-14T20:54:37.372Z,2.00
2023-09-14T20:57:07.723Z,2.13
2023-09-14T20:59:35.103Z,1.92
2023-09-14T21:02:04.431Z,2.65
2023-09-14T21:04:32.675Z,2.55
2023-09-14T21:06:59.583Z,2.53
2023-09-14T21:09:26.425Z,3.08
2023-09-14T21:11:53.265Z,2.55
2023-09-14T21:14:27.961Z,2.60
2023-09-14T21:16:56.106Z,2.47
2023-09-14T21:19:23.031Z,2.25
2023-09-14T21:22:03.246Z,2.50
2023-09-14T21:24:30.327Z,2.88
2023-09-14T21:26:57.230Z,2.70
2023-09-14T21:29:24.229Z,2.35
2023-09-14T21:31:51.135Z,2.60
2023-09-14T21:34:18.122Z,2.65
2023-09-14T21:36:44.962Z,3.20
2023-09-14T21:39:11.924Z,2.78
2023-09-14T21:41:38.858Z,3.28
2023-09-14T21:44:05.968Z,2.63
2023-09-14T21:46:32.922Z,2.80
2023-09-14T21:49:00.936Z,2.97
2023-09-14T21:51:28.060Z,3.40
2023-09-14T21:53:55.570Z,3.20
2023-09-14T21:56:22.698Z,3.25
2023-09-14T21:58:49.674Z,3.03
2023-09-14T22:01:18.097Z,3.42
2023-09-14T22:03:51.333Z,3.38
2023-09-14T22:06:24.752Z,3.13
2023-09-14T22:08:53.305Z,3.45
2023-09-14T22:11:20.358Z,3.63
2023-09-14T22:13:47.227Z,3.58
2023-09-14T22:16:14.141Z,3.38
2023-09-14T22:18:43.300Z,3.53
2023-09-14T22:21:14.802Z,2.90
2023-09-14T22:23:41.923Z,3.28
2023-09-14T22:26:08.858Z,3.17
2023-09-14T22:28:35.739Z,3.65
2023-09-14T22:31:02.628Z,3.35
2023-09-14T22:33:30.982Z,2.92
2023-09-14T22:35:58.469Z,3.22
2023-09-14T22:38:25.390Z,3.00
2023-09-14T22:40:52.229Z,4.18
2023-09-14T22:43:19.540Z,3.38
2023-09-14T22:45:46.704Z,3.00
2023-09-14T22:48:13.605Z,3.08
2023-09-14T22:50:41.316Z,3.30
2023-09-14T22:53:08.246Z,3.13
2023-09-14T22:55:36.301Z,3.42
2023-09-14T22:58:05.140Z,3.03
2023-09-14T23:00:33.280Z,3.30
2023-09-14T23:03:00.240Z,3.22
2023-09-14T23:05:27.917Z,3.75
2023-09-14T23:07:57.630Z,3.70
2023-09-14T23:10:24.541Z,3.58
2023-09-14T23:12:51.372Z,3.70
2023-09-14T23:15:20.594Z,3.72
2023-09-14T23:17:50.151Z,3.90
2023-09-14T23:20:27.329Z,3.78
2023-09-14T23:22:56.958Z,4.38
2023-09-14T23:25:26.779Z,4.13
2023-09-14T23:27:53.727Z,4.10
2023-09-14T23:30:22.507Z,4.22
2023-09-14T23:32:56.742Z,3.95
2023-09-14T23:35:24.275Z,4.18
2023-09-14T23:37:52.116Z,3.60
2023-09-14T23:40:49.801Z,4.30
2023-09-14T23:43:16.987Z,3.67
2023-09-14T23:45:44.945Z,4.03
2023-09-14T23:48:13.645Z,5.47
2023-09-14T23:50:46.133Z,4.68
2023-09-14T23:53:13.069Z,5.32
2023-09-14T23:55:39.862Z,5.05
2023-09-14T23:58:06.676Z,4.85
